Time;durP1;ratioP1;P1;durP2;ratioP2;P2;SDS_P1;SDS_P2;PMS_P1;PMS_P2;Temp;Humidity;BMP_temperature;BMP_pressure;BME280_temperature;BME280_humidity;BME280_pressure;Samples;Min_cycle;Max_cycle;Signal;HPM_P1;HPM_P2
2024/04/19 00:01:56;;;;;;;5.85;2.63;;;;;;;;;;5400041;26;20003;-77
2024/04/19 00:04:22;;;;;;;5.35;2.92;;;;;;;;;;5419581;26;20079;-77
2024/04/19 00:06:50;;;;;;;6.03;2.90;;;;;;;;;;5416955;26;20430;-77
2024/04/19 00:09:15;;;;;;;7.97;3.00;;;;;;;;;;5413235;26;20071;-76
2024/04/19 00:11:40;;;;;;;6.88;3.20;;;;;;;;;;5442200;26;20010;-77
2024/04/19 00:14:06;;;;;;;7.40;3.25;;;;;;;;;;5440629;26;19995;-77
2024/04/19 00:16:31;;;;;;;8.98;3.25;;;;;;;;;;5435177;26;20079;-77
2024/04/19 00:18:57;;;;;;;7.07;3.22;;;;;;;;;;5415653;26;20068;-77
2024/04/19 00:21:22;;;;;;;6.70;3.42;;;;;;;;;;5454564;26;20013;-77
2024/04/19 00:23:48;;;;;;;5.18;3.30;;;;;;;;;;5441749;26;19995;-77
2024/04/19 00:26:13;;;;;;;9.48;3.60;;;;;;;;;;5422679;26;20433;-77
2024/04/19 00:28:39;;;;;;;8.50;3.13;;;;;;;;;;5415624;26;20532;-77
2024/04/19 00:31:05;;;;;;;6.07;3.22;;;;;;;;;;5427782;26;19999;-76
2024/04/19 00:33:31;;;;;;;6.90;3.45;;;;;;;;;;5418168;26;20022;-77
2024/04/19 00:35:56;;;;;;;5.65;3.60;;;;;;;;;;5450007;26;20454;-77
2024/04/19 00:38:22;;;;;;;5.45;3.53;;;;;;;;;;5446581;26;20462;-81
2024/04/19 00:40:47;;;;;;;6.20;3.80;;;;;;;;;;5438968;26;20006;-81
2024/04/19 00:43:13;;;;;;;7.25;3.72;;;;;;;;;;5449457;26;19991;-81
2024/04/19 00:45:39;;;;;;;6.25;3.70;;;;;;;;;;5401310;26;20334;-81
2024/04/19 00:48:19;;;;;;;6.45;3.75;;;;;;;;;;5422219;26;19998;-81
2024/04/19 00:50:48;;;;;;;6.25;3.38;;;;;;;;;;5449413;26;20007;-81
2024/04/19 00:53:22;;;;;;;6.13;3.83;;;;;;;;;;5386769;26;20469;-81
2024/04/19 00:55:49;;;;;;;6.55;4.13;;;;;;;;;;5435100;26;19999;-80
2024/04/19 00:58:16;;;;;;;5.85;3.50;;;;;;;;;;5413654;26;20005;-81
2024/04/19 01:00:42;;;;;;;6.95;3.72;;;;;;;;;;5419630;26;20014;-81
2024/04/19 01:03:08;;;;;;;7.00;3.88;;;;;;;;;;5450384;26;20046;-80
2024/04/19 01:05:33;;;;;;;7.25;3.65;;;;;;;;;;5400666;26;20788;-81
2024/04/19 01:07:59;;;;;;;8.13;3.92;;;;;;;;;;5421653;26;20013;-81
2024/04/19 01:10:25;;;;;;;5.72;3.60;;;;;;;;;;5443689;26;20031;-81
2024/04/19 01:12:50;;;;;;;5.38;3.63;;;;;;;;;;5445505;26;20015;-81
2024/04/19 01:15:21;;;;;;;6.15;3.80;;;;;;;;;;5416811;26;20530;-81
2024/04/19 01:17:47;;;;;;;6.70;4.00;;;;;;;;;;5447058;26;20031;-82
2024/04/19 01:20:13;;;;;;;5.82;3.70;;;;;;;;;;5419890;26;20003;-81
2024/04/19 01:22:40;;;;;;;7.22;3.95;;;;;;;;;;5446198;26;20011;-81
2024/04/19 01:25:14;;;;;;;8.32;3.47;;;;;;;;;;5451310;26;20007;-81
2024/04/19 01:27:39;;;;;;;7.15;3.58;;;;;;;;;;5441499;26;19995;-82
2024/04/19 01:30:06;;;;;;;5.28;3.67;;;;;;;;;;5422714;26;19998;-81
2024/04/19 01:32:31;;;;;;;5.15;3.90;;;;;;;;;;5437894;26;20006;-81
2024/04/19 01:34:57;;;;;;;6.03;4.30;;;;;;;;;;5451587;26;20007;-82
2024/04/19 01:37:22;;;;;;;5.78;4.03;;;;;;;;;;5421249;26;20006;-82
2024/04/19 01:39:48;;;;;;;6.30;4.10;;;;;;;;;;5448604;26;20086;-81
2024/04/19 01:42:14;;;;;;;8.75;4.00;;;;;;;;;;5451307;26;20010;-81
2024/04/19 01:44:39;;;;;;;6.63;3.78;;;;;;;;;;5416852;26;19999;-81
2024/04/19 01:47:05;;;;;;;6.07;3.63;;;;;;;;;;5434944;26;19999;-82
2024/04/19 01:49:30;;;;;;;7.20;3.90;;;;;;;;;;5416578;26;20022;-78
2024/04/19 01:51:57;;;;;;;6.50;3.85;;;;;;;;;;5417663;26;20034;-78
2024/04/19 01:54:23;;;;;;;8.88;3.50;;;;;;;;;;5416985;26;20413;-77
2024/04/19 01:56:48;;;;;;;5.15;3.25;;;;;;;;;;5419699;26;20068;-78
2024/04/19 01:59:14;;;;;;;6.53;3.40;;;;;;;;;;5420692;26;20087;-78
2024/04/19 02:01:39;;;;;;;6.03;3.47;;;;;;;;;;5447624;26;20013;-78
2024/04/19 02:04:04;;;;;;;5.10;3.50;;;;;;;;;;5408570;26;19995;-78
2024/04/19 02:06:30;;;;;;;5.47;3.55;;;;;;;;;;5446749;26;20446;-78
2024/04/19 02:08:55;;;;;;;6.45;3.67;;;;;;;;;;5452678;26;20348;-78
2024/04/19 02:11:21;;;;;;;8.13;3.80;;;;;;;;;;5415980;26;20430;-78
2024/04/19 02:13:46;;;;;;;5.82;3.38;;;;;;;;;;5400858;26;20063;-79
2024/04/19 02:16:12;;;;;;;6.70;3.70;;;;;;;;;;5414390;26;20007;-78
2024/04/19 02:18:37;;;;;;;5.63;3.47;;;;;;;;;;5419248;26;20513;-78
2024/04/19 02:21:03;;;;;;;6.13;3.55;;;;;;;;;;5449511;26;19995;-78
2024/04/19 02:23:35;;;;;;;6.75;3.97;;;;;;;;;;5409639;26;20007;-78
2024/04/19 02:26:04;;;;;;;7.88;3.80;;;;;;;;;;5444977;26;20352;-78
2024/04/19 02:31:14;;;;;;;6.97;3.88;;;;;;;;;;5445780;26;20035;-77
2024/04/19 02:33:41;;;;;;;6.03;3.65;;;;;;;;;;5414505;26;20004;-78
2024/04/19 02:36:07;;;;;;;7.25;4.25;;;;;;;;;;5414642;26;19999;-77
2024/04/19 02:38:34;;;;;;;5.30;3.50;;;;;;;;;;5426111;26;20484;-77
2024/04/19 02:41:00;;;;;;;6.03;3.63;;;;;;;;;;5412153;26;19996;-77
2024/04/19 02:43:25;;;;;;;5.43;3.83;;;;;;;;;;5442654;26;20017;-78
2024/04/19 02:45:51;;;;;;;6.38;3.58;;;;;;;;;;5414661;26;20064;-77
2024/04/19 02:48:16;;;;;;;7.53;3.72;;;;;;;;;;5414300;26;20465;-77
2024/04/19 02:50:41;;;;;;;5.32;3.30;;;;;;;;;;5422918;26;20087;-78
2024/04/19 02:53:07;;;;;;;6.03;3.40;;;;;;;;;;5443555;26;20000;-77
2024/04/19 02:55:33;;;;;;;6.75;3.10;;;;;;;;;;5417632;26;20000;-77
2024/04/19 02:57:58;;;;;;;5.60;3.55;;;;;;;;;;5445485;26;20010;-77
2024/04/19 03:00:24;;;;;;;4.95;3.45;;;;;;;;;;5419779;26;20040;-77
2024/04/19 03:02:49;;;;;;;5.18;3.50;;;;;;;;;;5450952;26;20431;-77
2024/04/19 03:05:15;;;;;;;5.85;3.75;;;;;;;;;;5409545;26;20010;-77
2024/04/19 03:07:40;;;;;;;5.35;3.72;;;;;;;;;;5420169;26;19995;-77
2024/04/19 03:10:06;;;;;;;6.93;4.10;;;;;;;;;;5450003;26;20391;-77
2024/04/19 03:12:31;;;;;;;6.22;4.18;;;;;;;;;;5444923;26;20010;-77
2024/04/19 03:14:57;;;;;;;6.30;4.50;;;;;;;;;;5448793;26;20002;-77
2024/04/19 03:17:22;;;;;;;6.00;4.50;;;;;;;;;;5448553;26;20345;-77
2024/04/19 03:19:48;;;;;;;6.72;4.57;;;;;;;;;;5437315;26;19999;-77
2024/04/19 03:22:14;;;;;;;6.45;4.50;;;;;;;;;;5417870;26;20006;-77
2024/04/19 03:24:39;;;;;;;6.70;4.72;;;;;;;;;;5417585;26;20007;-77
2024/04/19 03:27:05;;;;;;;6.35;4.85;;;;;;;;;;5416979;26;20471;-77
2024/04/19 03:29:30;;;;;;;5.82;4.60;;;;;;;;;;5419904;26;19999;-77
2024/04/19 03:31:55;;;;;;;6.05;4.47;;;;;;;;;;5445311;26;19999;-77
2024/04/19 03:34:22;;;;;;;5.97;4.60;;;;;;;;;;5419104;26;20009;-77
2024/04/19 03:36:48;;;;;;;7.00;4.63;;;;;;;;;;5413680;26;19991;-77
2024/04/19 03:39:13;;;;;;;7.10;4.43;;;;;;;;;;5418182;26;20366;-77
2024/04/19 03:41:40;;;;;;;7.80;4.93;;;;;;;;;;5412248;26;19995;-77
2024/04/19 03:46:50;;;;;;;5.70;4.40;;;;;;;;;;5449087;26;20071;-77
2024/04/19 03:49:15;;;;;;;7.78;4.50;;;;;;;;;;5417014;26;20007;-77
2024/04/19 03:51:40;;;;;;;6.75;4.47;;;;;;;;;;5454573;26;20018;-77
2024/04/19 03:54:06;;;;;;;5.85;4.20;;;;;;;;;;5419584;26;20015;-76
2024/04/19 03:56:31;;;;;;;6.45;4.55;;;;;;;;;;5416294;26;20538;-76
2024/04/19 03:58:57;;;;;;;5.72;4.05;;;;;;;;;;5415002;26;20465;-77
2024/04/19 04:01:22;;;;;;;6.78;4.47;;;;;;;;;;5411777;26;20490;-77
2024/04/19 04:03:52;;;;;;;5.40;4.15;;;;;;;;;;5404110;26;20011;-77
2024/04/19 04:06:18;;;;;;;6.57;4.30;;;;;;;;;;5449377;26;20007;-77
2024/04/19 04:08:46;;;;;;;6.03;3.67;;;;;;;;;;5447734;26;20013;-77
2024/04/19 04:11:12;;;;;;;7.90;4.10;;;;;;;;;;5404847;26;20014;-77
2024/04/19 04:13:38;;;;;;;5.03;3.47;;;;;;;;;;5411671;26;20038;-77
2024/04/19 04:16:05;;;;;;;5.03;3.55;;;;;;;;;;5421036;26;20003;-77
2024/04/19 04:18:30;;;;;;;4.85;3.40;;;;;;;;;;5422241;26;19994;-77
2024/04/19 04:20:56;;;;;;;5.13;3.45;;;;;;;;;;5423438;26;20078;-77
2024/04/19 04:23:23;;;;;;;4.78;3.45;;;;;;;;;;5413577;26;20000;-77
2024/04/19 04:25:49;;;;;;;4.40;3.25;;;;;;;;;;5418095;26;19995;-77
2024/04/19 04:28:14;;;;;;;5.20;3.25;;;;;;;;;;5448154;26;20058;-77
2024/04/19 04:30:40;;;;;;;7.28;3.28;;;;;;;;;;5409112;26;20000;-77
2024/04/19 04:33:06;;;;;;;3.78;3.00;;;;;;;;;;5404143;26;20012;-77
2024/04/19 04:35:31;;;;;;;4.38;3.00;;;;;;;;;;5454566;26;20010;-77
2024/04/19 04:37:57;;;;;;;3.95;3.15;;;;;;;;;;5414292;26;20014;-77
2024/04/19 04:40:23;;;;;;;5.30;3.05;;;;;;;;;;5418558;26;20453;-77
2024/04/19 04:42:49;;;;;;;4.45;2.75;;;;;;;;;;5449027;26;20017;-77
2024/04/19 04:45:14;;;;;;;3.83;2.60;;;;;;;;;;5411847;26;20005;-77
2024/04/19 04:47:40;;;;;;;3.75;2.50;;;;;;;;;;5416842;26;20014;-76
2024/04/19 04:50:06;;;;;;;3.47;2.58;;;;;;;;;;5425032;26;20010;-77
2024/04/19 04:52:34;;;;;;;3.20;2.40;;;;;;;;;;5415489;26;19999;-77
2024/04/19 04:54:59;;;;;;;3.10;2.28;;;;;;;;;;5416256;26;19999;-77
2024/04/19 04:57:25;;;;;;;3.50;2.40;;;;;;;;;;5448877;26;20087;-76
2024/04/19 04:59:50;;;;;;;4.50;2.47;;;;;;;;;;5417809;26;20006;-77
2024/04/19 05:02:16;;;;;;;3.08;2.20;;;;;;;;;;5419953;26;20010;-76
2024/04/19 05:04:42;;;;;;;4.57;2.08;;;;;;;;;;5453482;26;20080;-77
2024/04/19 05:07:08;;;;;;;3.65;2.25;;;;;;;;;;5450358;26;19995;-77
2024/04/19 05:09:33;;;;;;;3.08;2.25;;;;;;;;;;5410860;26;20014;-77
2024/04/19 05:11:59;;;;;;;3.40;2.00;;;;;;;;;;5418087;26;20005;-77
2024/04/19 05:14:24;;;;;;;2.50;1.92;;;;;;;;;;5406111;26;20345;-77
2024/04/19 05:16:50;;;;;;;4.05;2.00;;;;;;;;;;5450626;26;19995;-77
2024/04/19 05:19:15;;;;;;;3.65;2.20;;;;;;;;;;5421067;26;19999;-81
2024/04/19 05:21:40;;;;;;;3.20;2.10;;;;;;;;;;5451280;26;19995;-80
2024/04/19 05:24:06;;;;;;;3.35;2.30;;;;;;;;;;5420103;26;20002;-81
2024/04/19 05:26:31;;;;;;;2.85;2.17;;;;;;;;;;5447687;26;19995;-80
2024/04/19 05:28:57;;;;;;;2.90;2.30;;;;;;;;;;5451692;26;20341;-80
2024/04/19 05:31:22;;;;;;;3.38;2.50;;;;;;;;;;5416551;26;20030;-81
2024/04/19 05:33:50;;;;;;;3.60;2.50;;;;;;;;;;5421360;26;20046;-80
2024/04/19 05:36:15;;;;;;;4.05;3.00;;;;;;;;;;5452799;26;20010;-80
2024/04/19 05:38:40;;;;;;;4.30;2.88;;;;;;;;;;5417330;26;20342;-81
2024/04/19 05:41:06;;;;;;;4.68;3.33;;;;;;;;;;5444441;26;20002;-81
2024/04/19 05:43:31;;;;;;;4.60;3.45;;;;;;;;;;5420326;26;20007;-80
2024/04/19 05:45:57;;;;;;;6.45;4.00;;;;;;;;;;5442733;26;20437;-80
2024/04/19 05:48:22;;;;;;;6.05;4.15;;;;;;;;;;5451231;26;20519;-81
2024/04/19 05:50:48;;;;;;;6.05;4.35;;;;;;;;;;5419526;26;20008;-80
2024/04/19 05:53:13;;;;;;;5.45;4.25;;;;;;;;;;5411613;26;20014;-80
2024/04/19 05:55:38;;;;;;;7.88;4.68;;;;;;;;;;5414188;26;20007;-80
2024/04/19 05:58:04;;;;;;;9.32;5.00;;;;;;;;;;5444585;26;19999;-81
2024/04/19 06:00:30;;;;;;;10.75;5.53;;;;;;;;;;5416097;26;20013;-79
2024/04/19 06:02:55;;;;;;;8.07;5.20;;;;;;;;;;5446421;26;20002;-82
2024/04/19 06:05:21;;;;;;;8.45;5.35;;;;;;;;;;5417783;26;20477;-82
2024/04/19 06:07:46;;;;;;;9.38;5.60;;;;;;;;;;5446939;26;20017;-82
2024/04/19 06:10:12;;;;;;;9.07;5.10;;;;;;;;;;5416195;26;20453;-82
2024/04/19 06:12:37;;;;;;;10.68;5.18;;;;;;;;;;5448588;26;20536;-82
2024/04/19 06:15:03;;;;;;;7.82;5.03;;;;;;;;;;5415492;26;20040;-82
2024/04/19 06:17:28;;;;;;;9.25;4.88;;;;;;;;;;5448912;26;20033;-82
2024/04/19 06:19:54;;;;;;;7.10;4.63;;;;;;;;;;5448005;26;20389;-82
2024/04/19 06:22:19;;;;;;;7.43;4.20;;;;;;;;;;5417062;26;20005;-82
2024/04/19 06:24:45;;;;;;;7.93;3.30;;;;;;;;;;5414965;26;20350;-82
2024/04/19 06:27:12;;;;;;;6.38;3.47;;;;;;;;;;5444213;26;20349;-82
2024/04/19 06:29:38;;;;;;;8.75;3.75;;;;;;;;;;5415179;26;20021;-82
2024/04/19 06:32:03;;;;;;;11.70;3.80;;;;;;;;;;5414195;26;19995;-80
2024/04/19 06:34:29;;;;;;;8.38;3.58;;;;;;;;;;5444629;26;20032;-82
2024/04/19 06:36:54;;;;;;;8.10;3.85;;;;;;;;;;5420816;26;20011;-82
2024/04/19 06:39:21;;;;;;;7.88;3.40;;;;;;;;;;5417342;26;20757;-82
2024/04/19 06:41:47;;;;;;;7.50;3.58;;;;;;;;;;5414827;26;20003;-80
2024/04/19 06:44:12;;;;;;;8.30;3.33;;;;;;;;;;5447681;26;20544;-82
2024/04/19 06:46:38;;;;;;;9.65;3.92;;;;;;;;;;5415874;26;20031;-82
2024/04/19 06:49:05;;;;;;;5.50;3.00;;;;;;;;;;5448042;26;20092;-82
2024/04/19 06:51:31;;;;;;;7.30;3.25;;;;;;;;;;5417992;26;20003;-82
2024/04/19 06:53:56;;;;;;;5.95;2.90;;;;;;;;;;5442685;26;20007;-82
2024/04/19 06:56:22;;;;;;;6.50;3.03;;;;;;;;;;5437226;26;19999;-80
2024/04/19 06:58:48;;;;;;;7.65;2.45;;;;;;;;;;5405894;26;20426;-83
2024/04/19 07:01:17;;;;;;;5.43;2.47;;;;;;;;;;5405121;26;20011;-82
2024/04/19 07:03:43;;;;;;;6.88;3.10;;;;;;;;;;5403257;26;19999;-82
2024/04/19 07:06:12;;;;;;;9.25;3.25;;;;;;;;;;5438225;26;20010;-80
2024/04/19 07:08:38;;;;;;;8.05;2.92;;;;;;;;;;5411902;26;20022;-82
2024/04/19 07:11:04;;;;;;;6.40;2.80;;;;;;;;;;5409184;26;20011;-82
2024/04/19 07:13:30;;;;;;;9.00;3.05;;;;;;;;;;5395235;26;20004;-82
2024/04/19 07:15:56;;;;;;;8.98;3.25;;;;;;;;;;5445729;26;19995;-81
2024/04/19 07:18:23;;;;;;;10.98;2.92;;;;;;;;;;5419927;26;20009;-82
2024/04/19 07:20:50;;;;;;;8.27;2.70;;;;;;;;;;5419077;26;20015;-82
2024/04/19 07:23:17;;;;;;;5.85;2.20;;;;;;;;;;5421993;26;20026;-82
2024/04/19 07:25:42;;;;;;;6.18;2.10;;;;;;;;;;5449787;26;20003;-82
2024/04/19 07:28:08;;;;;;;6.95;2.20;;;;;;;;;;5455015;26;20044;-82
2024/04/19 07:30:33;;;;;;;4.70;1.63;;;;;;;;;;5453374;26;20029;-82
2024/04/19 07:32:59;;;;;;;4.30;1.55;;;;;;;;;;5419190;26;20072;-82
2024/04/19 07:35:24;;;;;;;4.68;1.30;;;;;;;;;;5442163;26;20003;-82
2024/04/19 07:37:49;;;;;;;2.90;1.20;;;;;;;;;;5416201;26;19999;-82
2024/04/19 07:40:15;;;;;;;3.75;1.27;;;;;;;;;;5422254;26;19998;-77
2024/04/19 07:42:40;;;;;;;2.95;1.00;;;;;;;;;;5438365;26;19995;-77
2024/04/19 07:45:07;;;;;;;3.25;1.10;;;;;;;;;;5441686;26;20341;-77
2024/04/19 07:47:35;;;;;;;3.50;1.10;;;;;;;;;;5451212;26;19995;-77
2024/04/19 07:50:00;;;;;;;4.78;1.30;;;;;;;;;;5409981;26;19999;-77
2024/04/19 07:52:26;;;;;;;2.80;1.30;;;;;;;;;;5451124;26;20396;-77
2024/04/19 07:54:51;;;;;;;3.47;1.30;;;;;;;;;;5424698;26;20014;-78
2024/04/19 07:57:16;;;;;;;5.30;1.48;;;;;;;;;;5447491;26;20011;-78
2024/04/19 07:59:42;;;;;;;3.50;1.25;;;;;;;;;;5451758;26;19995;-77
2024/04/19 08:02:07;;;;;;;5.22;1.42;;;;;;;;;;5420960;26;19999;-78
2024/04/19 08:04:33;;;;;;;3.00;1.25;;;;;;;;;;5428040;26;20592;-77
2024/04/19 08:06:58;;;;;;;2.78;1.10;;;;;;;;;;5441752;26;20386;-78
2024/04/19 08:09:24;;;;;;;3.35;1.30;;;;;;;;;;5423016;26;20072;-78
2024/04/19 08:11:49;;;;;;;3.50;1.15;;;;;;;;;;5420367;26;20369;-77
2024/04/19 08:14:15;;;;;;;6.00;1.80;;;;;;;;;;5446412;26;20013;-77
2024/04/19 08:16:40;;;;;;;5.88;1.85;;;;;;;;;;5430386;26;20011;-75
2024/04/19 08:19:05;;;;;;;6.50;1.65;;;;;;;;;;5407041;26;20012;-75
2024/04/19 08:21:32;;;;;;;5.53;1.60;;;;;;;;;;5448709;26;19995;-78
2024/04/19 08:23:59;;;;;;;5.80;1.75;;;;;;;;;;5413485;26;20011;-77
2024/04/19 08:26:24;;;;;;;7.07;2.25;;;;;;;;;;5449570;26;20005;-78
2024/04/19 08:28:50;;;;;;;6.05;2.10;;;;;;;;;;5452724;26;19999;-74
2024/04/19 08:31:15;;;;;;;6.88;2.00;;;;;;;;;;5454463;26;19999;-75
2024/04/19 08:33:40;;;;;;;7.00;2.17;;;;;;;;;;5417205;26;19995;-78
2024/04/19 08:36:06;;;;;;;6.63;1.80;;;;;;;;;;5433944;26;20359;-78
2024/04/19 08:38:32;;;;;;;5.78;1.20;;;;;;;;;;5411933;26;19991;-78
2024/04/19 08:40:58;;;;;;;2.70;0.80;;;;;;;;;;5415182;26;20010;-75
2024/04/19 08:43:26;;;;;;;3.20;0.80;;;;;;;;;;5420509;26;20010;-78
2024/04/19 08:45:54;;;;;;;2.80;0.90;;;;;;;;;;5452162;26;20392;-75
2024/04/19 08:48:19;;;;;;;2.78;1.00;;;;;;;;;;5419887;26;20006;-78
2024/04/19 08:50:45;;;;;;;2.38;0.80;;;;;;;;;;5419467;26;20009;-76
2024/04/19 08:53:12;;;;;;;3.17;0.90;;;;;;;;;;5453374;26;20013;-78
2024/04/19 08:55:40;;;;;;;6.50;1.10;;;;;;;;;;5422598;26;20445;-78
2024/04/19 08:58:06;;;;;;;3.83;0.90;;;;;;;;;;5419955;26;20457;-76
2024/04/19 09:00:32;;;;;;;3.20;1.10;;;;;;;;;;5423554;26;20015;-83
2024/04/19 09:02:57;;;;;;;2.95;1.15;;;;;;;;;;5451554;26;19999;-81
2024/04/19 09:05:23;;;;;;;3.78;1.10;;;;;;;;;;5424575;26;20002;-81
2024/04/19 09:07:48;;;;;;;5.18;1.50;;;;;;;;;;5420489;26;20000;-83
2024/04/19 09:10:14;;;;;;;5.30;1.80;;;;;;;;;;5453521;26;19999;-81
2024/04/19 09:12:40;;;;;;;5.60;1.70;;;;;;;;;;5443729;26;20005;-83
2024/04/19 09:15:06;;;;;;;6.43;1.65;;;;;;;;;;5450553;26;19999;-81
2024/04/19 09:17:32;;;;;;;8.35;1.88;;;;;;;;;;5433266;26;20053;-80
2024/04/19 09:20:01;;;;;;;9.77;1.90;;;;;;;;;;5423142;26;19998;-83
2024/04/19 09:22:26;;;;;;;6.45;1.60;;;;;;;;;;5432531;26;20068;-80
2024/04/19 09:24:52;;;;;;;6.60;1.40;;;;;;;;;;5414846;26;20011;-80
2024/04/19 09:27:18;;;;;;;7.47;1.58;;;;;;;;;;5421930;26;20007;-82
2024/04/19 09:29:44;;;;;;;8.10;1.40;;;;;;;;;;5420687;26;20002;-80
2024/04/19 09:32:09;;;;;;;5.70;1.52;;;;;;;;;;5451691;26;20031;-80
2024/04/19 09:34:35;;;;;;;6.28;1.50;;;;;;;;;;5450632;26;20013;-83
2024/04/19 09:37:02;;;;;;;5.15;1.33;;;;;;;;;;5421013;26;19999;-82
2024/04/19 09:39:29;;;;;;;7.65;1.30;;;;;;;;;;5437230;26;19998;-81
2024/04/19 09:41:57;;;;;;;4.13;1.02;;;;;;;;;;5450105;26;19995;-83
2024/04/19 09:44:26;;;;;;;5.78;0.90;;;;;;;;;;5442602;26;20007;-82
2024/04/19 09:47:01;;;;;;;6.32;0.95;;;;;;;;;;5443024;26;20006;-80
2024/04/19 09:49:29;;;;;;;2.20;0.75;;;;;;;;;;5422762;26;20469;-82
2024/04/19 09:51:56;;;;;;;3.08;0.98;;;;;;;;;;5412319;26;20003;-82
2024/04/19 09:54:27;;;;;;;1.85;0.60;;;;;;;;;;5415888;26;20010;-82
2024/04/19 09:57:00;;;;;;;2.15;0.77;;;;;;;;;;5452655;26;19999;-82
2024/04/19 09:59:27;;;;;;;2.10;1.05;;;;;;;;;;5411797;26;20004;-80
2024/04/19 10:01:54;;;;;;;3.03;0.73;;;;;;;;;;5449037;26;20482;-81
2024/04/19 10:04:20;;;;;;;1.63;0.60;;;;;;;;;;5427229;26;20529;-81
2024/04/19 10:06:47;;;;;;;2.80;0.90;;;;;;;;;;5395267;26;20461;-79
2024/04/19 10:09:20;;;;;;;2.38;0.70;;;;;;;;;;5400923;26;20011;-79
2024/04/19 10:11:48;;;;;;;1.83;0.60;;;;;;;;;;5433286;26;19999;-80
2024/04/19 10:14:14;;;;;;;1.77;0.70;;;;;;;;;;5405810;26;20265;-79
2024/04/19 10:16:40;;;;;;;2.45;0.50;;;;;;;;;;5402843;26;20002;-81
2024/04/19 10:19:06;;;;;;;5.07;0.55;;;;;;;;;;5405793;26;20005;-79
2024/04/19 10:21:41;;;;;;;1.48;0.60;;;;;;;;;;5435381;26;20033;-79
2024/04/19 10:24:11;;;;;;;2.03;0.60;;;;;;;;;;5399874;26;20002;-79
2024/04/19 10:26:38;;;;;;;1.23;0.45;;;;;;;;;;5413646;26;20002;-79
2024/04/19 10:29:05;;;;;;;2.30;0.80;;;;;;;;;;5414624;26;20006;-79
2024/04/19 10:31:30;;;;;;;6.68;0.65;;;;;;;;;;5421649;26;19999;-79
2024/04/19 10:33:55;;;;;;;1.95;0.60;;;;;;;;;;5433297;26;20052;-79
2024/04/19 10:36:31;;;;;;;4.43;0.98;;;;;;;;;;5432552;26;20024;-79
2024/04/19 10:38:59;;;;;;;4.60;0.95;;;;;;;;;;5441778;26;20006;-79
2024/04/19 10:41:25;;;;;;;4.43;0.90;;;;;;;;;;5434538;26;20013;-79
2024/04/19 10:43:53;;;;;;;4.53;0.90;;;;;;;;;;5442452;26;20421;-79
2024/04/19 10:46:23;;;;;;;5.22;0.90;;;;;;;;;;5432784;26;20010;-79
2024/04/19 10:48:48;;;;;;;2.10;0.90;;;;;;;;;;5430433;26;20006;-79
2024/04/19 10:51:15;;;;;;;3.17;0.70;;;;;;;;;;5435588;26;20007;-79
2024/04/19 10:53:44;;;;;;;1.90;0.70;;;;;;;;;;5396522;26;20027;-79
2024/04/19 10:56:10;;;;;;;5.30;1.40;;;;;;;;;;5379196;26;21859;-81
2024/04/19 10:58:35;;;;;;;4.18;1.02;;;;;;;;;;5401070;26;20006;-79
2024/04/19 11:01:01;;;;;;;4.95;1.05;;;;;;;;;;5400061;26;20037;-81
2024/04/19 11:03:27;;;;;;;6.15;1.00;;;;;;;;;;5424271;26;20007;-79
2024/04/19 11:05:54;;;;;;;9.23;1.77;;;;;;;;;;5382427;26;20011;-79
2024/04/19 11:08:24;;;;;;;8.77;1.63;;;;;;;;;;5388800;26;20014;-80
2024/04/19 11:10:51;;;;;;;7.38;1.60;;;;;;;;;;5418157;26;20083;-81
2024/04/19 11:13:17;;;;;;;4.72;1.02;;;;;;;;;;5383610;26;20022;-81
2024/04/19 11:15:42;;;;;;;4.45;1.13;;;;;;;;;;5387593;26;20429;-80
2024/04/19 11:18:09;;;;;;;5.10;1.33;;;;;;;;;;5395082;26;20009;-80
2024/04/19 11:20:35;;;;;;;4.85;1.10;;;;;;;;;;5392314;26;19998;-79
2024/04/19 11:23:02;;;;;;;9.38;1.70;;;;;;;;;;5390414;26;20044;-80
2024/04/19 11:25:29;;;;;;;9.35;1.63;;;;;;;;;;5407750;26;20034;-82
2024/04/19 11:27:55;;;;;;;9.40;1.80;;;;;;;;;;5425725;26;20010;-81
2024/04/19 11:30:21;;;;;;;6.72;1.70;;;;;;;;;;5385051;26;20887;-82
2024/04/19 11:32:52;;;;;;;4.75;1.50;;;;;;;;;;5421698;26;20055;-81
2024/04/19 11:35:19;;;;;;;7.03;1.40;;;;;;;;;;5385449;26;20008;-82
2024/04/19 11:37:48;;;;;;;6.57;1.80;;;;;;;;;;5424915;26;20384;-81
2024/04/19 11:40:21;;;;;;;9.52;1.23;;;;;;;;;;5424140;26;20464;-82
2024/04/19 11:42:50;;;;;;;7.18;1.45;;;;;;;;;;5403863;26;19999;-81
2024/04/19 11:45:17;;;;;;;7.93;1.40;;;;;;;;;;5388459;26;20035;-81
2024/04/19 11:47:43;;;;;;;5.85;1.05;;;;;;;;;;5421449;26;20030;-80
2024/04/19 11:50:09;;;;;;;6.03;1.30;;;;;;;;;;5419607;26;20003;-80
2024/04/19 11:52:34;;;;;;;4.93;0.80;;;;;;;;;;5404533;26;20010;-79
2024/04/19 11:55:01;;;;;;;4.65;1.00;;;;;;;;;;5400286;26;20371;-79
2024/04/19 11:57:27;;;;;;;4.65;0.80;;;;;;;;;;5390250;26;20397;-81
2024/04/19 11:59:52;;;;;;;1.50;0.30;;;;;;;;;;5421244;26;19999;-78
2024/04/19 12:02:18;;;;;;;3.95;0.75;;;;;;;;;;5382775;26;20046;-79
2024/04/19 12:04:44;;;;;;;5.40;0.70;;;;;;;;;;5423317;26;20011;-80
2024/04/19 12:07:09;;;;;;;4.55;0.70;;;;;;;;;;5429617;26;19999;-81
2024/04/19 12:09:37;;;;;;;6.75;1.58;;;;;;;;;;5385999;26;20011;-81
2024/04/19 12:12:04;;;;;;;4.70;0.80;;;;;;;;;;5401686;26;19990;-79
2024/04/19 12:14:34;;;;;;;6.25;1.10;;;;;;;;;;5426656;26;20050;-81
2024/04/19 12:17:05;;;;;;;5.47;0.88;;;;;;;;;;5404473;26;19995;-79
2024/04/19 12:19:31;;;;;;;5.65;1.02;;;;;;;;;;5391157;26;20202;-79
2024/04/19 12:21:57;;;;;;;8.57;1.30;;;;;;;;;;5400576;26;19999;-78
2024/04/19 12:24:23;;;;;;;7.13;1.33;;;;;;;;;;5387963;26;20690;-81
2024/04/19 12:26:48;;;;;;;7.32;0.93;;;;;;;;;;5424505;26;20003;-80
2024/04/19 12:29:13;;;;;;;4.80;1.23;;;;;;;;;;5403049;26;20448;-81
2024/04/19 12:31:39;;;;;;;5.18;0.98;;;;;;;;;;5393005;26;20345;-79
2024/04/19 12:34:05;;;;;;;8.65;1.23;;;;;;;;;;5395273;26;20060;-79
2024/04/19 12:36:30;;;;;;;6.68;0.90;;;;;;;;;;5393762;26;20356;-79
2024/04/19 12:38:55;;;;;;;4.32;0.80;;;;;;;;;;5433184;26;20594;-81
2024/04/19 12:41:21;;;;;;;3.65;0.70;;;;;;;;;;5370138;26;20018;-80
2024/04/19 12:43:47;;;;;;;3.33;0.65;;;;;;;;;;5427459;26;20000;-82
2024/04/19 12:46:13;;;;;;;3.50;0.70;;;;;;;;;;5392901;26;20708;-81
2024/04/19 12:48:38;;;;;;;4.50;0.60;;;;;;;;;;5411062;26;20000;-81
2024/04/19 12:51:04;;;;;;;1.90;0.50;;;;;;;;;;5395861;26;20027;-81
2024/04/19 12:53:29;;;;;;;3.78;0.90;;;;;;;;;;5425560;26;20015;-81
2024/04/19 12:55:55;;;;;;;4.63;1.00;;;;;;;;;;5432837;26;19995;-81
2024/04/19 12:58:22;;;;;;;4.20;0.75;;;;;;;;;;5388333;26;20007;-81
2024/04/19 13:00:47;;;;;;;2.75;0.70;;;;;;;;;;5401330;26;20524;-81
2024/04/19 13:03:13;;;;;;;3.40;0.75;;;;;;;;;;5394459;26;20053;-80
2024/04/19 13:05:39;;;;;;;4.07;1.00;;;;;;;;;;5384240;26;20031;-79
2024/04/19 13:08:05;;;;;;;4.15;0.90;;;;;;;;;;5387826;26;22590;-80
2024/04/19 13:10:31;;;;;;;4.10;0.70;;;;;;;;;;5403537;26;20010;-81
2024/04/19 13:12:56;;;;;;;4.63;0.70;;;;;;;;;;5409968;26;20037;-82
2024/04/19 13:15:22;;;;;;;4.55;0.85;;;;;;;;;;5396693;26;20018;-79
2024/04/19 13:17:47;;;;;;;5.85;0.73;;;;;;;;;;5394862;26;19999;-81
2024/04/19 13:20:13;;;;;;;1.65;0.50;;;;;;;;;;5420439;26;20003;-79
2024/04/19 13:22:38;;;;;;;4.05;0.60;;;;;;;;;;5403803;26;20006;-79
2024/04/19 13:25:04;;;;;;;2.22;0.60;;;;;;;;;;5369061;26;24758;-79
2024/04/19 13:27:30;;;;;;;4.35;0.60;;;;;;;;;;5416594;26;20016;-79
2024/04/19 13:29:55;;;;;;;2.22;0.68;;;;;;;;;;5420140;26;20039;-80
2024/04/19 13:32:21;;;;;;;3.17;0.50;;;;;;;;;;5426062;26;20346;-79
2024/04/19 13:34:47;;;;;;;4.40;0.63;;;;;;;;;;5397101;26;20021;-81
2024/04/19 13:37:13;;;;;;;3.45;1.13;;;;;;;;;;5371723;26;20015;-81
2024/04/19 13:39:38;;;;;;;5.63;0.93;;;;;;;;;;5428690;26;20022;-78
2024/04/19 13:42:04;;;;;;;6.15;1.00;;;;;;;;;;5425732;26;20068;-79
2024/04/19 13:44:30;;;;;;;6.07;1.40;;;;;;;;;;5415815;26;20046;-79
2024/04/19 13:47:00;;;;;;;6.40;0.93;;;;;;;;;;5426223;26;20014;-77
2024/04/19 13:49:26;;;;;;;9.70;1.25;;;;;;;;;;5400022;26;20047;-78
2024/04/19 13:51:51;;;;;;;7.22;1.90;;;;;;;;;;5407144;26;20033;-78
2024/04/19 13:54:17;;;;;;;8.20;1.15;;;;;;;;;;5402023;26;20083;-78
2024/04/19 13:56:43;;;;;;;5.55;1.25;;;;;;;;;;5405733;26;20005;-78
2024/04/19 13:59:10;;;;;;;9.88;1.50;;;;;;;;;;5399850;26;20158;-78
2024/04/19 14:01:36;;;;;;;6.75;1.30;;;;;;;;;;5396750;26;20002;-79
2024/04/19 14:04:02;;;;;;;6.28;1.30;;;;;;;;;;5401556;26;20040;-79
2024/04/19 14:06:27;;;;;;;6.35;1.38;;;;;;;;;;5405229;26;20013;-79
2024/04/19 14:08:53;;;;;;;7.85;1.38;;;;;;;;;;5434054;26;20040;-78
2024/04/19 14:11:24;;;;;;;8.30;1.50;;;;;;;;;;5432990;26;20009;-78
2024/04/19 14:13:49;;;;;;;5.38;1.00;;;;;;;;;;5434033;26;20009;-79
2024/04/19 14:16:15;;;;;;;6.93;1.20;;;;;;;;;;5416303;26;20356;-79
2024/04/19 14:18:42;;;;;;;5.05;1.30;;;;;;;;;;5406581;26;20003;-78
2024/04/19 14:21:08;;;;;;;10.30;1.75;;;;;;;;;;5421134;26;20002;-78
2024/04/19 14:23:33;;;;;;;8.43;1.92;;;;;;;;;;5441375;26;20010;-78
2024/04/19 14:25:59;;;;;;;11.40;1.63;;;;;;;;;;5422114;26;20049;-78
2024/04/19 14:28:25;;;;;;;8.23;1.58;;;;;;;;;;5429261;26;20053;-78
2024/04/19 14:30:50;;;;;;;7.50;1.70;;;;;;;;;;5424947;26;20010;-78
2024/04/19 14:33:16;;;;;;;6.28;1.63;;;;;;;;;;5430847;26;20004;-78
2024/04/19 14:35:42;;;;;;;9.90;1.90;;;;;;;;;;5398117;26;20007;-78
2024/04/19 14:38:08;;;;;;;9.70;1.88;;;;;;;;;;5392639;26;20012;-78
2024/04/19 14:40:33;;;;;;;9.93;1.80;;;;;;;;;;5435137;26;20645;-79
2024/04/19 14:42:59;;;;;;;7.68;1.60;;;;;;;;;;5420560;26;20558;-78